createdAt,value
2023-05-05T00:00:51.876Z,49.87
2023-05-05T00:01:55.857Z,49.72
2023-05-05T00:02:57.549Z,49.53
2023-05-05T00:04:01.801Z,49.39
2023-05-05T00:05:03.942Z,49.65
2023-05-05T00:06:08.331Z,49.83
2023-05-05T00:07:10.060Z,49.83
2023-05-05T00:08:13.973Z,49.99
2023-05-05T00:09:15.710Z,50.02
2023-05-05T00:10:17.491Z,50.12
2023-05-05T00:11:19.019Z,50.19
2023-05-05T00:12:20.727Z,50.23
2023-05-05T00:13:22.268Z,50.04
2023-05-05T00:14:26.249Z,50.18
2023-05-05T00:15:27.950Z,49.99
2023-05-05T00:16:29.517Z,50.19
2023-05-05T00:17:31.165Z,50.39
2023-05-05T00:18:35.193Z,50.36
2023-05-05T00:19:37.088Z,50.46
2023-05-05T00:20:38.706Z,50.39
2023-05-05T00:21:40.359Z,50.46
2023-05-05T00:22:41.982Z,50.24
2023-05-05T00:23:45.669Z,50.60
2023-05-05T00:24:49.630Z,50.26
2023-05-05T00:25:51.353Z,50.22
2023-05-05T00:26:52.919Z,50.54
2023-05-05T00:27:54.847Z,50.31
2023-05-05T00:28:56.518Z,50.44
2023-05-05T00:29:58.135Z,50.32
2023-05-05T00:31:02.282Z,50.08
2023-05-05T00:32:04.435Z,50.09
2023-05-05T00:33:06.555Z,49.99
2023-05-05T00:34:10.441Z,50.05
2023-05-05T00:35:12.142Z,50.21
2023-05-05T00:36:14.761Z,50.19
2023-05-05T00:37:16.618Z,50.10
2023-05-05T00:38:18.271Z,50.34
2023-05-05T00:39:22.226Z,50.30
2023-05-05T00:40:25.289Z,50.31
2023-05-05T00:41:29.588Z,50.47
2023-05-05T00:42:41.949Z,50.57
2023-05-05T00:43:45.929Z,50.72
2023-05-05T00:44:50.404Z,50.58
2023-05-05T00:45:59.994Z,50.57
2023-05-05T00:47:01.671Z,50.55
2023-05-05T00:48:03.812Z,50.86
2023-05-05T00:49:05.488Z,50.85
2023-05-05T00:50:08.317Z,50.80
2023-05-05T00:51:12.881Z,50.30
2023-05-05T00:52:14.514Z,50.57
2023-05-05T00:53:16.218Z,50.32
2023-05-05T00:54:17.712Z,50.59
2023-05-05T00:55:19.402Z,50.46
2023-05-05T00:56:22.055Z,50.51
2023-05-05T00:57:25.372Z,50.63
2023-05-05T00:58:30.543Z,51.11
2023-05-05T00:59:34.752Z,51.35
2023-05-05T01:00:39.186Z,51.03
2023-05-05T01:01:41.222Z,50.85
2023-05-05T01:02:46.114Z,51.00
2023-05-05T01:03:48.132Z,51.03
2023-05-05T01:04:49.754Z,50.74
2023-05-05T01:06:19.954Z,50.63
2023-05-05T01:07:34.113Z,50.54
2023-05-05T01:08:48.327Z,50.56
2023-05-05T01:10:17.966Z,50.63
2023-05-05T01:11:45.520Z,50.68
2023-05-05T01:13:08.871Z,50.55
2023-05-05T01:14:18.490Z,50.76
2023-05-05T01:15:44.653Z,50.96
2023-05-05T01:16:54.802Z,51.03
2023-05-05T01:18:04.288Z,50.62
2023-05-05T01:19:08.583Z,50.90
2023-05-05T01:20:47.868Z,51.03
2023-05-05T01:22:02.193Z,50.76
2023-05-05T01:23:07.315Z,50.88
2023-05-05T01:24:31.796Z,51.30
2023-05-05T01:25:50.708Z,51.03
2023-05-05T01:27:16.616Z,51.24
2023-05-05T01:28:31.186Z,51.00
2023-05-05T01:29:47.709Z,50.82
2023-05-05T01:31:10.679Z,50.70
2023-05-05T01:32:16.135Z,50.66
2023-05-05T01:33:27.870Z,50.85
2023-05-05T01:34:45.107Z,50.61
2023-05-05T01:35:52.333Z,50.70
2023-05-05T01:37:08.486Z,50.63
2023-05-05T01:38:16.322Z,50.82
2023-05-05T01:39:19.458Z,50.97
2023-05-05T01:40:26.727Z,51.04
2023-05-05T01:41:34.486Z,51.11
2023-05-05T01:42:41.124Z,50.77
2023-05-05T01:43:50.329Z,50.93
2023-05-05T01:44:54.270Z,50.93
2023-05-05T01:45:57.533Z,51.09
2023-05-05T01:47:01.261Z,50.87
2023-05-05T01:48:05.324Z,50.79
2023-05-05T01:49:09.956Z,50.83
2023-05-05T01:50:13.504Z,50.81
2023-05-05T01:51:19.153Z,51.04
2023-05-05T01:52:22.612Z,50.74
2023-05-05T01:53:26.607Z,50.71
2023-05-05T01:54:29.664Z,50.66
2023-05-05T01:55:33.847Z,50.89
2023-05-05T01:56:38.707Z,51.04
2023-05-05T01:57:42.434Z,50.90
2023-05-05T01:58:46.619Z,51.03
2023-05-05T01:59:51.230Z,51.03
2023-05-05T02:00:56.726Z,51.03
2023-05-05T02:02:02.781Z,50.85
2023-05-05T02:03:08.527Z,50.76
2023-05-05T02:04:14.444Z,50.82
2023-05-05T02:05:19.360Z,50.60
2023-05-05T02:06:22.756Z,50.79
2023-05-05T02:07:24.511Z,50.42
2023-05-05T02:08:26.727Z,50.64
2023-05-05T02:09:29.479Z,50.38
2023-05-05T02:10:34.213Z,50.60
2023-05-05T02:11:36.470Z,50.51
2023-05-05T02:12:40.993Z,50.47
2023-05-05T02:13:46.782Z,50.42
2023-05-05T02:14:53.670Z,50.64
2023-05-05T02:15:57.034Z,50.31
2023-05-05T02:16:58.987Z,50.55
2023-05-05T02:18:02.175Z,50.44
2023-05-05T02:19:06.796Z,50.52
2023-05-05T02:20:11.877Z,50.55
2023-05-05T02:21:14.881Z,50.40
2023-05-05T02:22:16.870Z,50.65
2023-05-05T02:23:21.376Z,50.30
2023-05-05T02:24:26.367Z,50.62
2023-05-05T02:25:36.981Z,50.69
2023-05-05T02:26:44.192Z,50.60
2023-05-05T02:27:50.803Z,50.60
2023-05-05T02:29:02.045Z,50.75
2023-05-05T02:30:08.761Z,50.61
2023-05-05T02:31:14.727Z,50.71
2023-05-05T02:32:34.739Z,50.79
2023-05-05T02:33:38.598Z,50.71
2023-05-05T02:34:41.759Z,50.93
2023-05-05T02:35:47.511Z,51.04
2023-05-05T02:36:54.353Z,50.79
2023-05-05T02:38:02.683Z,51.04
2023-05-05T02:39:19.082Z,50.98
2023-05-05T02:40:26.050Z,50.84
2023-05-05T02:41:31.820Z,50.95
2023-05-05T02:42:41.843Z,50.70
2023-05-05T02:43:48.608Z,51.21
2023-05-05T02:44:52.997Z,51.24
2023-05-05T02:45:54.893Z,51.38
2023-05-05T02:46:57.986Z,51.53
2023-05-05T02:48:04.365Z,51.31
2023-05-05T02:49:09.278Z,51.32
2023-05-05T02:50:15.662Z,51.25
2023-05-05T02:51:24.852Z,51.15
2023-05-05T02:52:26.766Z,51.63
2023-05-05T02:53:29.261Z,51.41
2023-05-05T02:54:31.632Z,51.42
2023-05-05T02:55:54.874Z,51.51
2023-05-05T02:57:01.378Z,51.36
2023-05-05T02:58:14.005Z,51.30
2023-05-05T02:59:29.996Z,51.53
2023-05-05T03:00:52.618Z,51.64
2023-05-05T03:02:37.127Z,51.61
2023-05-05T03:03:44.860Z,51.46
2023-05-05T03:05:02.410Z,51.81
2023-05-05T03:06:17.452Z,51.61
2023-05-05T03:07:30.739Z,51.69
2023-05-05T03:09:14.475Z,51.44
2023-05-05T03:10:21.973Z,51.42
2023-05-05T03:11:45.660Z,51.46
2023-05-05T03:12:59.914Z,51.75
2023-05-05T03:14:12.392Z,51.54
2023-05-05T03:15:18.320Z,51.61
2023-05-05T03:16:23.219Z,51.64
2023-05-05T03:17:26.123Z,51.74
2023-05-05T03:18:31.285Z,51.77
2023-05-05T03:19:37.811Z,52.01
2023-05-05T03:20:42.703Z,51.98
2023-05-05T03:21:46.497Z,52.12
2023-05-05T03:22:48.631Z,51.92
2023-05-05T03:23:51.121Z,52.01
2023-05-05T03:24:55.622Z,52.07
2023-05-05T03:25:59.032Z,52.35
2023-05-05T03:27:14.629Z,52.13
2023-05-05T03:28:18.115Z,52.29
2023-05-05T03:29:21.987Z,52.13
2023-05-05T03:30:24.333Z,52.07
2023-05-05T03:31:28.415Z,52.13
2023-05-05T03:32:35.738Z,52.21
2023-05-05T03:33:39.818Z,52.10
2023-05-05T03:34:43.651Z,52.20
2023-05-05T03:35:45.529Z,52.04
2023-05-05T03:36:50.800Z,52.23
2023-05-05T03:37:52.471Z,52.12
2023-05-05T03:38:54.047Z,52.06
2023-05-05T03:39:59.462Z,52.14
2023-05-05T03:41:03.295Z,52.15
2023-05-05T03:42:05.986Z,51.94
2023-05-05T03:43:10.656Z,52.05
2023-05-05T03:44:12.647Z,52.27
2023-05-05T03:45:14.352Z,52.54
2023-05-05T03:46:16.397Z,52.46
2023-05-05T03:47:18.372Z,52.51
2023-05-05T03:48:19.901Z,52.80
2023-05-05T03:49:21.810Z,52.84
2023-05-05T03:50:24.416Z,52.73
2023-05-05T03:51:26.148Z,52.84
2023-05-05T03:52:30.356Z,52.60
2023-05-05T03:53:32.341Z,52.50
2023-05-05T03:54:35.668Z,52.52
2023-05-05T03:55:37.386Z,52.64
2023-05-05T03:56:41.467Z,52.46
2023-05-05T03:57:45.980Z,53.17
2023-05-05T03:58:50.134Z,52.79
2023-05-05T03:59:54.201Z,53.25
2023-05-05T04:00:55.930Z,53.02
2023-05-05T04:01:57.711Z,53.05
2023-05-05T04:02:59.386Z,52.92
2023-05-05T04:04:01.598Z,53.06
2023-05-05T04:05:05.758Z,53.06
2023-05-05T04:06:10.033Z,52.84
2023-05-05T04:07:11.671Z,52.95
2023-05-05T04:08:16.004Z,52.86
2023-05-05T04:09:17.537Z,52.88
2023-05-05T04:10:19.307Z,53.06
2023-05-05T04:11:21.337Z,53.15
2023-05-05T04:12:25.349Z,52.79
2023-05-05T04:13:31.621Z,53.26
2023-05-05T04:14:34.582Z,53.33
2023-05-05T04:15:38.745Z,53.22
2023-05-05T04:16:40.520Z,53.07
2023-05-05T04:17:42.747Z,53.00
2023-05-05T04:18:44.362Z,53.05
2023-05-05T04:19:45.974Z,53.34
2023-05-05T04:20:47.746Z,53.04
2023-05-05T04:21:52.008Z,53.03
2023-05-05T04:22:56.218Z,53.27
2023-05-05T04:23:58.795Z,53.14
2023-05-05T04:25:01.246Z,53.52
2023-05-05T04:26:03.257Z,53.34
2023-05-05T04:27:05.812Z,53.15
2023-05-05T04:28:07.365Z,53.23
2023-05-05T04:29:09.868Z,53.18
2023-05-05T04:32:47.466Z,53.26
2023-05-05T04:33:52.888Z,53.20
2023-05-05T04:34:54.759Z,53.13
2023-05-05T04:35:57.189Z,53.25
2023-05-05T04:36:59.538Z,53.34
2023-05-05T04:38:03.304Z,53.46
2023-05-05T04:39:06.988Z,53.31
2023-05-05T04:40:09.685Z,53.29
2023-05-05T04:41:12.791Z,53.13
2023-05-05T04:42:16.943Z,53.17
2023-05-05T04:43:18.631Z,53.23
2023-05-05T04:44:20.685Z,53.12
2023-05-05T04:45:22.288Z,53.11
2023-05-05T04:46:24.570Z,53.51
2023-05-05T04:47:26.378Z,53.19
2023-05-05T04:48:28.114Z,52.80
2023-05-05T04:49:30.155Z,53.32
2023-05-05T04:50:32.362Z,53.03
2023-05-05T04:51:41.306Z,53.03
2023-05-05T04:52:43.018Z,52.69
2023-05-05T04:53:44.645Z,52.75
2023-05-05T04:54:48.563Z,52.80
2023-05-05T04:55:50.263Z,52.76
2023-05-05T04:56:52.729Z,52.77
2023-05-05T04:57:54.311Z,52.96
2023-05-05T04:58:58.198Z,52.72
2023-05-05T05:00:01.539Z,52.53
2023-05-05T05:01:03.480Z,52.63
2023-05-05T05:02:05.278Z,52.77
2023-05-05T05:03:08.205Z,52.87
2023-05-05T05:04:13.123Z,52.73
2023-05-05T05:05:14.809Z,52.38
2023-05-05T05:06:16.649Z,52.00
2023-05-05T05:07:18.303Z,52.28
2023-05-05T05:08:19.910Z,52.57
2023-05-05T05:09:21.508Z,52.25
2023-05-05T05:10:23.041Z,51.76
2023-05-05T05:11:24.743Z,51.85
2023-05-05T05:12:26.392Z,51.80
2023-05-05T05:13:27.906Z,51.98
2023-05-05T05:14:30.126Z,51.73
2023-05-05T05:15:31.743Z,51.79
2023-05-05T05:16:35.871Z,51.80
2023-05-05T05:17:40.526Z,51.98
2023-05-05T05:18:42.529Z,51.55
2023-05-05T05:19:44.138Z,51.73
2023-05-05T05:20:46.355Z,51.93
2023-05-05T05:21:51.082Z,51.58
2023-05-05T05:22:54.969Z,51.36
2023-05-05T05:23:57.218Z,51.29
2023-05-05T05:24:59.709Z,51.36
2023-05-05T05:26:01.377Z,51.29
2023-05-05T05:27:09.825Z,51.28
2023-05-05T05:28:14.462Z,51.36
2023-05-05T05:29:21.774Z,51.38
2023-05-05T05:30:23.835Z,51.17
2023-05-05T05:31:27.805Z,51.63
2023-05-05T05:32:29.779Z,51.46
2023-05-05T05:33:31.440Z,51.61
2023-05-05T05:34:34.014Z,51.31
2023-05-05T05:35:36.146Z,51.26
2023-05-05T05:36:38.277Z,51.43
2023-05-05T05:37:42.427Z,51.53
2023-05-05T05:38:46.209Z,51.40
2023-05-05T05:39:53.669Z,51.38
2023-05-05T05:40:59.656Z,51.52
2023-05-05T05:42:04.025Z,51.63
2023-05-05T05:43:10.236Z,51.95
2023-05-05T05:44:12.229Z,51.77
2023-05-05T05:45:14.122Z,51.82
2023-05-05T05:46:15.818Z,52.23
2023-05-05T05:47:17.905Z,52.04
2023-05-05T05:48:21.457Z,52.01
2023-05-05T05:49:23.345Z,51.86
2023-05-05T05:50:29.611Z,52.01
2023-05-05T05:51:33.064Z,51.75
2023-05-05T05:52:36.142Z,51.97
2023-05-05T05:53:39.712Z,51.77
2023-05-05T05:54:42.848Z,51.75
2023-05-05T05:55:48.778Z,51.81
2023-05-05T05:56:50.819Z,51.75
2023-05-05T05:57:56.040Z,51.65
2023-05-05T05:58:57.703Z,51.94
2023-05-05T06:00:04.634Z,51.51
2023-05-05T06:01:13.709Z,51.50
2023-05-05T06:02:19.113Z,51.44
2023-05-05T06:03:21.228Z,51.56
2023-05-05T06:04:23.052Z,51.50
2023-05-05T06:05:24.802Z,51.48
2023-05-05T06:06:27.969Z,51.24
2023-05-05T06:07:29.577Z,51.37
2023-05-05T06:08:31.259Z,51.47
2023-05-05T06:09:35.184Z,51.16
2023-05-05T06:10:36.863Z,50.92
2023-05-05T06:11:46.052Z,50.93
2023-05-05T06:12:47.665Z,50.83
2023-05-05T06:13:49.211Z,51.29
2023-05-05T06:14:51.026Z,50.73
2023-05-05T06:15:52.678Z,50.65
2023-05-05T06:16:55.168Z,49.55
2023-05-05T06:17:59.910Z,49.01
2023-05-05T06:19:01.703Z,48.81
2023-05-05T06:20:03.533Z,48.45
2023-05-05T06:21:07.355Z,48.03
2023-05-05T06:22:11.430Z,47.63
2023-05-05T06:23:15.198Z,47.44
2023-05-05T06:24:21.694Z,47.59
2023-05-05T06:25:23.384Z,47.16
2023-05-05T06:26:26.118Z,47.16
2023-05-05T06:27:27.751Z,47.31
2023-05-05T06:28:29.368Z,47.52
2023-05-05T06:29:31.112Z,47.29
2023-05-05T06:30:32.839Z,47.11
2023-05-05T06:31:38.973Z,46.78
2023-05-05T06:32:40.710Z,46.83
2023-05-05T06:33:42.353Z,46.89
2023-05-05T06:34:44.986Z,46.82
2023-05-05T06:35:47.806Z,46.50
2023-05-05T06:36:49.563Z,46.49
2023-05-05T06:37:51.359Z,46.79
2023-05-05T06:38:53.934Z,46.49
2023-05-05T06:39:56.731Z,46.16
2023-05-05T06:40:58.640Z,45.71
2023-05-05T06:42:00.260Z,45.89
2023-05-05T06:43:01.786Z,46.34
2023-05-05T06:44:10.719Z,45.91
2023-05-05T06:45:12.692Z,45.93
2023-05-05T06:46:16.488Z,45.71
2023-05-05T06:47:18.071Z,45.84
2023-05-05T06:48:24.306Z,45.94
2023-05-05T06:49:26.204Z,46.08
2023-05-05T06:50:27.923Z,46.01
2023-05-05T06:51:29.811Z,46.33
2023-05-05T06:52:31.557Z,45.84
2023-05-05T06:53:33.278Z,45.72
2023-05-05T06:54:34.919Z,45.78
2023-05-05T06:55:43.026Z,44.99
2023-05-05T06:56:44.718Z,45.01
2023-05-05T06:57:46.220Z,45.00
2023-05-05T06:58:47.911Z,44.70
2023-05-05T06:59:49.553Z,44.24
2023-05-05T07:00:51.059Z,44.89
2023-05-05T07:01:52.691Z,44.33
2023-05-05T07:02:56.641Z,44.19
2023-05-05T07:03:58.260Z,44.22
2023-05-05T07:05:00.005Z,44.01
2023-05-05T07:06:01.506Z,44.62
2023-05-05T07:07:05.521Z,44.48
2023-05-05T07:08:08.951Z,44.05
2023-05-05T07:09:10.530Z,44.47
2023-05-05T07:10:14.464Z,44.29
2023-05-05T07:11:16.193Z,43.74
2023-05-05T07:12:20.083Z,43.70
2023-05-05T07:13:21.718Z,43.71
2023-05-05T07:14:24.513Z,43.63
2023-05-05T07:15:29.820Z,43.32
2023-05-05T07:16:34.545Z,43.32
2023-05-05T07:17:36.257Z,43.21
2023-05-05T07:18:37.917Z,42.98
2023-05-05T07:19:39.409Z,43.61
2023-05-05T07:20:41.390Z,42.54
2023-05-05T07:21:43.074Z,42.52
2023-05-05T07:22:44.537Z,42.88
2023-05-05T07:23:47.716Z,41.95
2023-05-05T07:24:49.880Z,41.88
2023-05-05T07:25:54.764Z,41.74
2023-05-05T07:26:56.478Z,41.54
2023-05-05T07:27:58.256Z,41.93
2023-05-05T07:28:59.920Z,41.52
2023-05-05T07:30:01.460Z,42.26
2023-05-05T07:31:03.292Z,41.79
2023-05-05T07:32:05.289Z,41.68
2023-05-05T07:33:11.229Z,41.48
2023-05-05T07:34:12.973Z,41.37
2023-05-05T07:35:14.491Z,41.65
2023-05-05T07:36:17.870Z,41.48
2023-05-05T07:37:21.672Z,41.21
2023-05-05T07:38:23.155Z,41.82
2023-05-05T07:39:24.910Z,41.41
2023-05-05T07:40:26.499Z,41.86
2023-05-05T07:41:29.541Z,41.23
2023-05-05T07:42:31.233Z,41.30
2023-05-05T07:43:32.885Z,41.41
2023-05-05T07:44:36.857Z,41.62
2023-05-05T07:45:38.820Z,41.28
2023-05-05T07:46:40.426Z,41.08
2023-05-05T07:47:42.002Z,40.72
2023-05-05T07:48:43.621Z,41.17
2023-05-05T07:49:45.248Z,40.98
2023-05-05T07:50:49.157Z,40.58
2023-05-05T07:51:50.811Z,40.70
2023-05-05T07:53:02.508Z,40.15
2023-05-05T07:54:12.386Z,39.63
2023-05-05T07:55:14.106Z,40.08
2023-05-05T07:56:15.713Z,40.63
2023-05-05T07:57:17.426Z,40.36
2023-05-05T07:58:19.048Z,40.73
2023-05-05T07:59:23.024Z,39.99
2023-05-05T08:00:24.833Z,40.12
2023-05-05T08:01:29.163Z,39.74
2023-05-05T08:02:30.730Z,40.00
2023-05-05T08:03:32.468Z,39.86
2023-05-05T08:04:34.136Z,39.50
2023-05-05T08:05:36.045Z,39.69
2023-05-05T08:06:37.608Z,39.30
2023-05-05T08:07:41.700Z,39.48
2023-05-05T08:08:48.880Z,39.50
2023-05-05T08:09:50.462Z,39.37
2023-05-05T08:10:53.118Z,39.86
2023-05-05T08:11:57.300Z,39.06
2023-05-05T08:12:58.998Z,38.86
2023-05-05T08:14:00.738Z,38.94
2023-05-05T08:15:02.457Z,38.85
2023-05-05T08:16:04.126Z,39.12
2023-05-05T08:17:05.953Z,38.34
2023-05-05T08:18:07.482Z,38.36
2023-05-05T08:19:17.835Z,38.20
2023-05-05T08:20:30.017Z,37.72
2023-05-05T08:21:31.808Z,38.05
2023-05-05T08:22:33.439Z,37.79
2023-05-05T08:23:35.587Z,38.38
2023-05-05T08:24:37.283Z,38.43
2023-05-05T08:25:38.818Z,38.15
2023-05-05T08:26:42.595Z,37.96
2023-05-05T08:27:46.731Z,37.99
2023-05-05T08:28:48.783Z,37.91
2023-05-05T08:29:50.394Z,38.09
2023-05-05T08:30:52.033Z,38.12
2023-05-05T08:31:53.704Z,38.23
2023-05-05T08:32:55.648Z,38.43
2023-05-05T08:33:57.536Z,37.94
2023-05-05T08:35:02.005Z,37.68
2023-05-05T08:36:06.263Z,37.97
2023-05-05T08:37:07.935Z,37.71
2023-05-05T08:38:09.549Z,38.27
2023-05-05T08:39:13.286Z,37.69
2023-05-05T08:40:14.972Z,36.38
2023-05-05T08:41:22.052Z,35.98
2023-05-05T08:42:36.284Z,35.73
2023-05-05T08:43:39.379Z,35.40
2023-05-05T08:44:44.298Z,35.42
2023-05-05T08:45:46.442Z,35.56
2023-05-05T08:46:49.327Z,35.63
2023-05-05T08:47:53.308Z,35.61
2023-05-05T08:48:55.635Z,35.74
2023-05-05T08:49:59.498Z,35.30
2023-05-05T08:51:06.587Z,34.72
2023-05-05T08:52:13.777Z,35.25
2023-05-05T08:53:30.298Z,35.06
2023-05-05T08:54:38.243Z,34.82
2023-05-05T08:56:00.779Z,34.98
2023-05-05T08:57:04.585Z,34.93
2023-05-05T08:58:09.773Z,34.18
2023-05-05T08:59:12.494Z,34.12
2023-05-05T09:00:14.681Z,33.51
2023-05-05T09:01:16.960Z,33.96
2023-05-05T09:02:23.760Z,33.89
2023-05-05T09:03:27.018Z,33.24
2023-05-05T09:04:28.752Z,33.20
2023-05-05T09:05:30.285Z,33.65
2023-05-05T09:06:32.431Z,33.92
2023-05-05T09:07:34.778Z,32.98
2023-05-05T09:08:41.507Z,32.69
2023-05-05T09:09:44.160Z,32.74
2023-05-05T09:10:46.575Z,33.14
2023-05-05T09:11:48.384Z,32.67
2023-05-05T09:12:51.510Z,33.17
2023-05-05T09:13:56.006Z,32.49
2023-05-05T09:15:03.528Z,32.42
2023-05-05T09:16:05.488Z,32.83
2023-05-05T09:17:21.792Z,32.87
2023-05-05T09:18:23.432Z,32.44
2023-05-05T09:19:27.428Z,32.98
2023-05-05T09:20:39.751Z,32.65
2023-05-05T09:21:50.760Z,32.59
2023-05-05T09:22:54.755Z,32.91
2023-05-05T09:24:10.868Z,32.65
2023-05-05T09:25:14.937Z,33.23
2023-05-05T09:26:17.082Z,33.06
2023-05-05T09:27:25.822Z,32.60
2023-05-05T09:28:30.328Z,32.87
2023-05-05T09:29:31.982Z,32.75
2023-05-05T09:30:34.649Z,33.36
2023-05-05T09:31:37.682Z,33.01
2023-05-05T09:32:50.853Z,32.71
2023-05-05T09:33:52.522Z,32.64
2023-05-05T09:35:01.297Z,32.59
2023-05-05T09:36:02.931Z,32.57
2023-05-05T09:37:04.535Z,33.09
2023-05-05T09:38:12.329Z,32.98
2023-05-05T09:39:16.704Z,32.93
2023-05-05T09:40:20.122Z,32.84
2023-05-05T09:41:37.729Z,32.65
2023-05-05T09:42:40.545Z,33.10
2023-05-05T09:43:52.395Z,32.68
2023-05-05T09:44:56.855Z,32.50
2023-05-05T09:46:09.681Z,33.11
2023-05-05T09:47:22.377Z,32.78
2023-05-05T09:48:32.335Z,32.93
2023-05-05T09:49:34.081Z,32.55
2023-05-05T09:50:45.017Z,32.49
2023-05-05T09:51:47.566Z,32.01
2023-05-05T09:53:03.017Z,32.43
2023-05-05T09:54:04.635Z,32.44
2023-05-05T09:55:10.627Z,32.42
2023-05-05T09:56:12.349Z,32.25
2023-05-05T09:57:29.701Z,32.55
2023-05-05T09:58:33.527Z,32.40
2023-05-05T09:59:35.128Z,32.37
2023-05-05T10:00:39.283Z,32.27
2023-05-05T10:01:43.869Z,32.31
2023-05-05T10:02:45.923Z,32.51
2023-05-05T10:03:53.858Z,32.59
2023-05-05T10:05:21.485Z,32.62
2023-05-05T10:06:40.128Z,32.13
2023-05-05T10:07:44.661Z,32.60
2023-05-05T10:09:01.440Z,32.26
2023-05-05T10:10:08.446Z,32.08
2023-05-05T10:11:11.094Z,32.25
2023-05-05T10:12:12.769Z,32.20
2023-05-05T10:13:15.596Z,31.96
2023-05-05T10:14:18.721Z,32.14
2023-05-05T10:15:21.364Z,32.26
2023-05-05T10:16:24.323Z,32.17
2023-05-05T10:17:30.003Z,32.01
2023-05-05T10:18:32.456Z,32.04
2023-05-05T10:19:35.797Z,31.84
2023-05-05T10:20:38.802Z,32.33
2023-05-05T10:21:43.748Z,32.04
2023-05-05T10:22:52.695Z,31.78
2023-05-05T10:24:32.729Z,32.16
2023-05-05T10:25:46.448Z,31.72
2023-05-05T10:26:52.013Z,31.75
2023-05-05T10:27:59.087Z,32.20
2023-05-05T10:29:04.188Z,32.17
2023-05-05T10:30:07.731Z,32.09
2023-05-05T10:31:25.962Z,31.91
2023-05-05T10:34:23.728Z,32.15
2023-05-05T10:35:27.755Z,31.83
2023-05-05T10:36:30.490Z,32.14
2023-05-05T10:37:32.964Z,31.38
2023-05-05T10:38:36.104Z,31.63
2023-05-05T10:39:41.499Z,31.68
2023-05-05T10:40:45.765Z,31.45
2023-05-05T10:41:48.110Z,32.06
2023-05-05T10:42:50.915Z,32.18
2023-05-05T10:43:59.968Z,31.95
2023-05-05T10:45:05.815Z,31.33
2023-05-05T10:46:12.049Z,31.75
2023-05-05T10:47:14.183Z,31.90
2023-05-05T10:48:40.965Z,31.60
2023-05-05T10:49:53.297Z,32.05
2023-05-05T10:51:03.453Z,31.87
2023-05-05T10:52:26.181Z,32.09
2023-05-05T10:53:39.342Z,31.58
2023-05-05T10:54:50.156Z,31.73
2023-05-05T10:56:15.214Z,31.38
2023-05-05T10:57:22.530Z,30.97
2023-05-05T10:58:55.362Z,31.15
2023-05-05T11:00:00.366Z,31.05
2023-05-05T11:01:02.480Z,31.30
2023-05-05T11:02:31.424Z,30.69
2023-05-05T11:03:33.567Z,30.60
2023-05-05T11:04:35.310Z,30.42
2023-05-05T11:05:36.972Z,30.84
2023-05-05T11:06:38.570Z,30.99
2023-05-05T11:07:40.147Z,31.51
2023-05-05T11:08:44.038Z,30.59
2023-05-05T11:10:01.269Z,30.32
2023-05-05T11:11:04.106Z,30.50
2023-05-05T11:12:06.578Z,30.01
2023-05-05T11:13:08.192Z,29.79
2023-05-05T11:14:21.349Z,30.48
2023-05-05T11:15:31.792Z,30.63
2023-05-05T11:16:47.857Z,29.72
2023-05-05T11:17:49.991Z,29.81
2023-05-05T11:18:51.770Z,30.10
2023-05-05T11:19:55.927Z,30.13
2023-05-05T11:20:57.524Z,30.04
2023-05-05T11:22:02.943Z,29.82
2023-05-05T11:23:05.166Z,29.87
2023-05-05T11:24:29.188Z,29.92
2023-05-05T11:25:36.759Z,29.72
2023-05-05T11:26:52.266Z,29.83
2023-05-05T11:28:17.623Z,29.57
2023-05-05T11:29:19.126Z,29.97
2023-05-05T11:30:20.721Z,30.06
2023-05-05T11:31:22.343Z,30.22
2023-05-05T11:32:25.110Z,29.71
2023-05-05T11:33:37.746Z,29.47
2023-05-05T11:34:49.956Z,29.54
2023-05-05T11:35:58.803Z,29.45
2023-05-05T11:37:03.256Z,29.30
2023-05-05T11:38:08.226Z,29.74
2023-05-05T11:39:26.618Z,29.47
2023-05-05T11:40:35.079Z,29.37
2023-05-05T11:42:18.211Z,29.39
2023-05-05T11:43:19.753Z,29.33
2023-05-05T11:44:30.807Z,28.75
2023-05-05T11:45:32.706Z,28.87
2023-05-05T11:46:34.347Z,28.78
2023-05-05T11:47:36.268Z,29.31
2023-05-05T11:48:50.988Z,29.05
2023-05-05T11:49:52.751Z,29.42
2023-05-05T11:50:54.687Z,29.41
2023-05-05T11:52:13.046Z,28.68
2023-05-05T11:53:18.576Z,28.71
2023-05-05T11:54:21.317Z,28.38
2023-05-05T11:55:23.159Z,28.35
2023-05-05T11:56:24.946Z,28.02
2023-05-05T11:57:29.937Z,28.37
2023-05-05T11:58:31.558Z,28.32
2023-05-05T11:59:37.410Z,28.04
2023-05-05T12:00:39.169Z,27.93
2023-05-05T12:01:41.388Z,27.78
2023-05-05T12:02:43.257Z,27.83
2023-05-05T12:03:45.434Z,27.82
2023-05-05T12:04:48.209Z,27.67
2023-05-05T12:05:54.580Z,27.39
2023-05-05T12:06:59.385Z,27.44
2023-05-05T12:08:01.446Z,27.07
2023-05-05T12:09:04.120Z,27.72
2023-05-05T12:10:09.655Z,28.03
2023-05-05T12:11:11.749Z,28.08
2023-05-05T12:12:14.552Z,27.67
2023-05-05T12:13:20.489Z,27.54
2023-05-05T12:14:25.539Z,27.46
2023-05-05T12:15:32.854Z,27.77
2023-05-05T12:16:37.730Z,27.93
2023-05-05T12:17:45.738Z,27.92
2023-05-05T12:18:47.383Z,27.71
2023-05-05T12:19:50.814Z,27.90
2023-05-05T12:20:52.931Z,27.79
2023-05-05T12:21:54.652Z,27.71
2023-05-05T12:23:03.183Z,27.30
2023-05-05T12:24:05.212Z,27.31
2023-05-05T12:25:08.379Z,27.86
2023-05-05T12:26:26.009Z,27.46
2023-05-05T12:27:28.633Z,27.46
2023-05-05T12:28:47.806Z,27.65
2023-05-05T12:29:49.862Z,27.64
2023-05-05T12:30:58.955Z,27.63
2023-05-05T12:32:04.252Z,27.57
2023-05-05T12:33:07.940Z,27.75
2023-05-05T12:34:12.639Z,27.99
2023-05-05T12:35:15.976Z,27.77
2023-05-05T12:36:18.079Z,28.13
2023-05-05T12:37:20.633Z,28.64
2023-05-05T12:38:22.281Z,28.70
2023-05-05T12:39:33.999Z,28.67
2023-05-05T12:40:49.142Z,28.67
2023-05-05T12:41:51.259Z,28.47
2023-05-05T12:42:53.757Z,27.84
2023-05-05T12:43:59.896Z,28.12
2023-05-05T12:45:01.753Z,27.81
2023-05-05T12:46:13.512Z,27.78
2023-05-05T12:47:29.096Z,27.97
2023-05-05T12:48:33.946Z,27.72
2023-05-05T12:49:52.054Z,27.89
2023-05-05T12:50:54.033Z,28.06
2023-05-05T12:51:57.210Z,27.81
2023-05-05T12:52:58.834Z,27.65
2023-05-05T12:54:09.682Z,27.82
2023-05-05T12:55:12.144Z,27.73
2023-05-05T12:56:33.792Z,28.36
2023-05-05T12:57:35.470Z,27.81
2023-05-05T12:58:48.564Z,28.06
2023-05-05T12:59:51.100Z,28.31
2023-05-05T13:01:11.186Z,28.21
2023-05-05T13:02:12.936Z,28.09
2023-05-05T13:03:20.848Z,27.90
2023-05-05T13:04:27.056Z,28.29
2023-05-05T13:05:33.030Z,28.11
2023-05-05T13:06:34.952Z,28.06
2023-05-05T13:07:48.979Z,28.54
2023-05-05T13:08:53.116Z,28.51
2023-05-05T13:10:07.322Z,28.63
2023-05-05T13:11:08.988Z,28.92
2023-05-05T13:12:13.368Z,28.34
2023-05-05T13:13:17.787Z,28.27
2023-05-05T13:14:19.618Z,28.33
2023-05-05T13:15:23.969Z,28.41
2023-05-05T13:16:25.756Z,28.48
2023-05-05T13:17:29.922Z,29.04
2023-05-05T13:18:31.642Z,29.25
2023-05-05T13:19:35.461Z,29.27
2023-05-05T13:20:37.081Z,28.93
2023-05-05T13:21:38.752Z,28.83
2023-05-05T13:22:40.241Z,28.97
2023-05-05T13:23:45.516Z,28.52
2023-05-05T13:24:52.492Z,28.79
2023-05-05T13:26:08.705Z,28.30
2023-05-05T13:27:10.376Z,28.44
2023-05-05T13:28:12.100Z,28.54
2023-05-05T13:29:16.620Z,28.59
2023-05-05T13:30:18.329Z,29.03
2023-05-05T13:31:20.036Z,28.47
2023-05-05T13:32:24.119Z,28.86
2023-05-05T13:33:25.905Z,28.62
2023-05-05T13:34:27.532Z,28.77
2023-05-05T13:35:32.994Z,28.44
2023-05-05T13:36:34.934Z,28.08
2023-05-05T13:37:39.079Z,28.32
2023-05-05T13:38:43.226Z,28.48
2023-05-05T13:39:44.862Z,29.18
2023-05-05T13:40:46.522Z,29.79
2023-05-05T13:41:48.118Z,29.75
2023-05-05T13:42:49.782Z,29.50
2023-05-05T13:43:53.920Z,29.63
2023-05-05T13:44:55.609Z,29.23
2023-05-05T13:46:05.642Z,28.82
2023-05-05T13:47:14.643Z,28.71
2023-05-05T13:48:16.524Z,28.97
2023-05-05T13:49:18.176Z,28.79
2023-05-05T13:50:19.855Z,28.71
2023-05-05T13:51:21.553Z,29.50
2023-05-05T13:52:23.151Z,29.70
2023-05-05T13:53:25.201Z,29.75
2023-05-05T13:54:26.983Z,29.53
2023-05-05T13:55:29.588Z,29.62
2023-05-05T13:56:31.463Z,29.32
2023-05-05T13:57:33.080Z,28.98
2023-05-05T13:58:37.210Z,29.99
2023-05-05T13:59:39.461Z,29.85
2023-05-05T14:00:41.130Z,29.60
2023-05-05T14:01:42.774Z,29.39
2023-05-05T14:02:44.503Z,29.68
2023-05-05T14:03:48.724Z,30.24
2023-05-05T14:04:50.416Z,30.63